Time;durP1;ratioP1;P1;durP2;ratioP2;P2;SDS_P1;SDS_P2;PMS_P1;PMS_P2;Temp;Humidity;BMP_temperature;BMP_pressure;BME280_temperature;BME280_humidity;BME280_pressure;Samples;Min_cycle;Max_cycle;Signal;HPM_P1;HPM_P2
2022/09/29 00:00:44;;;;;;;2.00;0.20;;;;;;;;;;5073786;28;20029;-83
2022/09/29 00:03:11;;;;;;;3.47;0.35;;;;;;;;;;5073591;28;20021;-75
2022/09/29 00:05:37;;;;;;;0.85;0.20;;;;;;;;;;5074370;28;20024;-78
2022/09/29 00:08:03;;;;;;;0.90;0.20;;;;;;;;;;5074445;28;20035;-75
2022/09/29 00:10:29;;;;;;;1.45;0.15;;;;;;;;;;5074152;28;20028;-82
2022/09/29 00:12:55;;;;;;;1.10;0.30;;;;;;;;;;5073904;28;20036;-81
2022/09/29 00:15:21;;;;;;;1.20;0.30;;;;;;;;;;5074394;28;20066;-83
2022/09/29 00:17:47;;;;;;;1.08;0.25;;;;;;;;;;5078964;28;20495;-83
2022/09/29 00:20:15;;;;;;;0.47;0.20;;;;;;;;;;5073841;28;20044;-76
2022/09/29 00:22:41;;;;;;;0.65;0.28;;;;;;;;;;5074742;28;20074;-85
2022/09/29 00:25:07;;;;;;;0.52;0.20;;;;;;;;;;5074350;28;20028;-85
2022/09/29 00:27:33;;;;;;;0.60;0.22;;;;;;;;;;5076565;28;20056;-85
2022/09/29 00:29:59;;;;;;;1.38;0.30;;;;;;;;;;5082279;28;20036;-82
2022/09/29 00:32:25;;;;;;;0.85;0.20;;;;;;;;;;5076953;28;20033;-86
2022/09/29 00:34:51;;;;;;;1.13;0.40;;;;;;;;;;5075553;28;20037;-85
2022/09/29 00:37:17;;;;;;;0.90;0.30;;;;;;;;;;5074899;28;20052;-85
2022/09/29 00:39:43;;;;;;;1.02;0.40;;;;;;;;;;5074899;28;20035;-79
2022/09/29 00:42:11;;;;;;;0.65;0.20;;;;;;;;;;5078001;28;20024;-84
2022/09/29 00:44:56;;;;;;;0.68;0.22;;;;;;;;;;5077775;28;20024;-86
2022/09/29 00:47:24;;;;;;;0.65;0.28;;;;;;;;;;5085177;28;20025;-86
2022/09/29 00:49:53;;;;;;;1.00;0.20;;;;;;;;;;5078242;28;20111;-77
2022/09/29 00:52:19;;;;;;;0.85;0.25;;;;;;;;;;5090529;28;20024;-82
2022/09/29 00:54:48;;;;;;;1.13;0.20;;;;;;;;;;5088985;28;20058;-87
2022/09/29 00:57:16;;;;;;;4.47;0.40;;;;;;;;;;5084773;28;20020;-77
2022/09/29 00:59:42;;;;;;;0.30;0.10;;;;;;;;;;5085807;28;20021;-81
2022/09/29 01:02:08;;;;;;;0.77;0.30;;;;;;;;;;5089649;28;20063;-82
2022/09/29 01:04:34;;;;;;;1.45;0.30;;;;;;;;;;5089107;28;20353;-81
2022/09/29 01:07:00;;;;;;;0.50;0.20;;;;;;;;;;5088427;28;20048;-84
2022/09/29 01:09:28;;;;;;;2.88;0.32;;;;;;;;;;5085557;28;20025;-78
2022/09/29 01:11:57;;;;;;;2.75;0.38;;;;;;;;;;5077205;28;20028;-83
2022/09/29 01:14:23;;;;;;;1.33;0.40;;;;;;;;;;5085921;28;20473;-86
2022/09/29 01:16:49;;;;;;;2.05;0.63;;;;;;;;;;5076200;28;20021;-82
2022/09/29 01:19:18;;;;;;;0.80;0.40;;;;;;;;;;5071588;28;20037;-83
2022/09/29 01:21:54;;;;;;;1.10;0.30;;;;;;;;;;5072072;28;20045;-83
2022/09/29 01:24:46;;;;;;;2.53;0.45;;;;;;;;;;5072806;28;20088;-83
2022/09/29 01:27:21;;;;;;;0.63;0.20;;;;;;;;;;5072531;28;20107;-82
2022/09/29 01:30:06;;;;;;;0.77;0.17;;;;;;;;;;5072202;28;20024;-81
2022/09/29 01:32:51;;;;;;;1.95;0.43;;;;;;;;;;5072138;28;20025;-84
2022/09/29 01:35:20;;;;;;;0.95;0.20;;;;;;;;;;5071292;28;20108;-82
2022/09/29 01:38:05;;;;;;;1.42;0.38;;;;;;;;;;5071822;28;20020;-83
2022/09/29 01:40:58;;;;;;;2.88;0.80;;;;;;;;;;5071725;28;20032;-84
2022/09/29 01:43:27;;;;;;;3.17;0.80;;;;;;;;;;5067299;28;20025;-77
2022/09/29 01:45:59;;;;;;;5.95;2.38;;;;;;;;;;5073162;28;20032;-82
2022/09/29 01:48:28;;;;;;;3.58;0.68;;;;;;;;;;5071579;28;20415;-80
2022/09/29 01:50:56;;;;;;;1.42;0.35;;;;;;;;;;5071424;28;20097;-83
2022/09/29 01:53:25;;;;;;;1.17;0.32;;;;;;;;;;5071681;28;20108;-76
2022/09/29 01:55:53;;;;;;;0.52;0.22;;;;;;;;;;5073494;28;20032;-81
2022/09/29 01:58:22;;;;;;;1.17;0.45;;;;;;;;;;5071923;28;20032;-78
2022/09/29 02:00:54;;;;;;;2.78;0.52;;;;;;;;;;5071316;28;20021;-82
2022/09/29 02:03:24;;;;;;;1.10;0.40;;;;;;;;;;5072166;28;20043;-84
2022/09/29 02:05:55;;;;;;;1.20;0.38;;;;;;;;;;5071891;28;20488;-85
2022/09/29 02:08:26;;;;;;;0.85;0.30;;;;;;;;;;5072102;28;20028;-82
2022/09/29 02:10:58;;;;;;;2.65;0.40;;;;;;;;;;5071410;28;20031;-76
2022/09/29 02:13:25;;;;;;;2.15;0.50;;;;;;;;;;5070994;28;20025;-75
2022/09/29 02:15:53;;;;;;;0.70;0.30;;;;;;;;;;5070966;28;20051;-75
2022/09/29 02:18:22;;;;;;;1.00;0.30;;;;;;;;;;5070984;28;20028;-78
2022/09/29 02:20:49;;;;;;;1.00;0.30;;;;;;;;;;5071342;28;20049;-77
2022/09/29 02:23:15;;;;;;;0.88;0.25;;;;;;;;;;5071320;28;20020;-82
2022/09/29 02:25:41;;;;;;;0.70;0.40;;;;;;;;;;5071415;28;20029;-75
2022/09/29 02:28:08;;;;;;;1.10;0.30;;;;;;;;;;5071386;28;20023;-83
2022/09/29 02:30:34;;;;;;;0.40;0.20;;;;;;;;;;5071354;28;20039;-84
2022/09/29 02:33:01;;;;;;;1.92;0.30;;;;;;;;;;5074940;28;20388;-75
2022/09/29 02:35:31;;;;;;;1.27;0.40;;;;;;;;;;5075313;28;20036;-86
2022/09/29 02:37:57;;;;;;;0.95;0.40;;;;;;;;;;5075989;28;20025;-82
2022/09/29 02:40:24;;;;;;;0.80;0.35;;;;;;;;;;5076339;28;20060;-84
2022/09/29 02:42:56;;;;;;;3.45;0.40;;;;;;;;;;5076039;28;20031;-83
2022/09/29 02:45:41;;;;;;;1.55;0.60;;;;;;;;;;5075800;28;20024;-83
2022/09/29 02:48:13;;;;;;;1.63;0.60;;;;;;;;;;5075601;28;20047;-83
2022/09/29 02:50:48;;;;;;;1.20;0.50;;;;;;;;;;5077547;28;20024;-82
2022/09/29 02:53:14;;;;;;;0.80;0.32;;;;;;;;;;5075504;28;20039;-83
2022/09/29 02:55:47;;;;;;;2.33;0.50;;;;;;;;;;5075219;28;20041;-84
2022/09/29 02:58:17;;;;;;;0.73;0.30;;;;;;;;;;5075330;28;20029;-84
2022/09/29 03:00:44;;;;;;;0.60;0.30;;;;;;;;;;5076164;28;20028;-86
2022/09/29 03:03:10;;;;;;;1.30;0.43;;;;;;;;;;5075435;28;20396;-84
2022/09/29 03:05:36;;;;;;;2.88;0.75;;;;;;;;;;5075516;28;20040;-85
2022/09/29 03:08:02;;;;;;;1.15;0.30;;;;;;;;;;5074948;28;20060;-83
2022/09/29 03:10:29;;;;;;;0.82;0.38;;;;;;;;;;5075405;28;20024;-86
2022/09/29 03:12:55;;;;;;;0.68;0.32;;;;;;;;;;5075378;28;20124;-77
2022/09/29 03:15:22;;;;;;;1.35;0.40;;;;;;;;;;5074653;28;20090;-86
2022/09/29 03:17:49;;;;;;;2.40;0.60;;;;;;;;;;5075632;28;20112;-84
2022/09/29 03:20:15;;;;;;;1.20;0.40;;;;;;;;;;5074797;28;20287;-83
2022/09/29 03:22:41;;;;;;;1.20;0.50;;;;;;;;;;5075167;28;20024;-75
2022/09/29 03:25:08;;;;;;;1.58;0.52;;;;;;;;;;5074706;28;20025;-82
2022/09/29 03:27:37;;;;;;;1.00;0.40;;;;;;;;;;5074886;28;20074;-84
2022/09/29 03:30:03;;;;;;;1.95;0.40;;;;;;;;;;5075141;28;20028;-85
2022/09/29 03:32:30;;;;;;;0.75;0.30;;;;;;;;;;5074904;28;20021;-85
2022/09/29 03:34:56;;;;;;;1.30;0.63;;;;;;;;;;5075202;28;20047;-87
2022/09/29 03:37:22;;;;;;;0.90;0.40;;;;;;;;;;5075079;28;20136;-74
2022/09/29 03:39:48;;;;;;;1.10;0.50;;;;;;;;;;5075970;28;20038;-84
2022/09/29 03:42:15;;;;;;;2.10;0.50;;;;;;;;;;5074799;28;20520;-81
2022/09/29 03:44:41;;;;;;;1.63;0.73;;;;;;;;;;5074730;28;20029;-77
2022/09/29 03:47:07;;;;;;;2.42;0.35;;;;;;;;;;5074665;28;20021;-79
2022/09/29 03:49:34;;;;;;;1.17;0.40;;;;;;;;;;5075306;28;20027;-84
2022/09/29 03:52:01;;;;;;;1.60;0.50;;;;;;;;;;5074789;28;20024;-84
2022/09/29 03:54:27;;;;;;;2.30;0.88;;;;;;;;;;5074427;28;20120;-85
2022/09/29 03:56:53;;;;;;;1.55;0.32;;;;;;;;;;5075982;28;20051;-85
2022/09/29 03:59:19;;;;;;;1.83;0.60;;;;;;;;;;5074638;28;20025;-84
2022/09/29 04:01:45;;;;;;;2.50;0.50;;;;;;;;;;5074834;28;20032;-75
2022/09/29 04:04:11;;;;;;;1.42;0.40;;;;;;;;;;5075943;28;20060;-81
2022/09/29 04:06:38;;;;;;;0.80;0.40;;;;;;;;;;5084287;28;20016;-77
2022/09/29 04:09:04;;;;;;;1.65;0.52;;;;;;;;;;5082836;28;20028;-78
2022/09/29 04:11:30;;;;;;;1.98;0.75;;;;;;;;;;5087562;28;20469;-78
2022/09/29 04:13:56;;;;;;;1.25;0.40;;;;;;;;;;5083385;28;20127;-85
2022/09/29 04:16:22;;;;;;;1.58;0.55;;;;;;;;;;5074774;28;20469;-77
2022/09/29 04:18:48;;;;;;;2.17;0.88;;;;;;;;;;5075774;28;20481;-79
2022/09/29 04:21:15;;;;;;;1.30;0.50;;;;;;;;;;5076593;28;20135;-77
2022/09/29 04:23:41;;;;;;;2.03;0.50;;;;;;;;;;5080015;28;20025;-77
2022/09/29 04:26:08;;;;;;;1.60;0.50;;;;;;;;;;5074398;28;20036;-79
2022/09/29 04:28:35;;;;;;;1.17;0.43;;;;;;;;;;5074300;28;20028;-79
2022/09/29 04:31:01;;;;;;;1.80;0.85;;;;;;;;;;5075692;28;20500;-79
2022/09/29 04:33:28;;;;;;;1.27;0.70;;;;;;;;;;5093521;28;20054;-84
2022/09/29 04:35:55;;;;;;;2.00;0.82;;;;;;;;;;5093186;28;20028;-77
2022/09/29 04:38:21;;;;;;;2.75;0.60;;;;;;;;;;5093721;28;20048;-79
2022/09/29 04:40:48;;;;;;;1.00;0.57;;;;;;;;;;5096070;28;20106;-76
2022/09/29 04:43:14;;;;;;;1.10;0.50;;;;;;;;;;5093841;28;20065;-77
2022/09/29 04:45:40;;;;;;;1.88;0.50;;;;;;;;;;5094079;28;20054;-78
2022/09/29 04:48:06;;;;;;;1.70;0.85;;;;;;;;;;5093714;28;20024;-78
2022/09/29 04:50:33;;;;;;;2.55;0.60;;;;;;;;;;5095201;28;20059;-75
2022/09/29 04:52:59;;;;;;;1.23;0.52;;;;;;;;;;5094274;28;20020;-76
2022/09/29 04:55:25;;;;;;;0.63;0.32;;;;;;;;;;5092299;28;20047;-75
2022/09/29 04:57:51;;;;;;;1.25;0.52;;;;;;;;;;5093897;28;20016;-77
2022/09/29 05:00:17;;;;;;;4.90;1.17;;;;;;;;;;5093897;28;20031;-78
2022/09/29 05:02:43;;;;;;;2.80;0.98;;;;;;;;;;5093860;28;20016;-76
2022/09/29 05:05:11;;;;;;;5.10;1.08;;;;;;;;;;5093555;28;20032;-77
2022/09/29 05:07:39;;;;;;;2.85;1.30;;;;;;;;;;5093737;28;20024;-76
2022/09/29 05:10:05;;;;;;;3.05;1.60;;;;;;;;;;5093477;28;20107;-81
2022/09/29 05:12:31;;;;;;;2.38;0.90;;;;;;;;;;5094833;28;20031;-76
2022/09/29 05:14:58;;;;;;;2.75;0.95;;;;;;;;;;5093602;28;20063;-76
2022/09/29 05:17:24;;;;;;;2.50;1.10;;;;;;;;;;5093481;28;20468;-75
2022/09/29 05:19:50;;;;;;;1.83;0.88;;;;;;;;;;5092542;28;20105;-85
2022/09/29 05:22:19;;;;;;;1.25;0.63;;;;;;;;;;5057468;28;20043;-76
2022/09/29 05:24:45;;;;;;;2.22;0.80;;;;;;;;;;5056571;28;20025;-87
2022/09/29 05:27:11;;;;;;;1.55;0.70;;;;;;;;;;5057691;28;20120;-84
2022/09/29 05:29:37;;;;;;;2.25;0.82;;;;;;;;;;5056436;28;20509;-81
2022/09/29 05:32:03;;;;;;;7.25;1.40;;;;;;;;;;5056184;28;20027;-77
2022/09/29 05:34:32;;;;;;;2.72;1.13;;;;;;;;;;5074234;28;20068;-76
2022/09/29 05:36:58;;;;;;;8.10;1.25;;;;;;;;;;5056314;28;20470;-87
2022/09/29 05:39:30;;;;;;;2.38;1.10;;;;;;;;;;5055856;28;20063;-85
2022/09/29 05:41:56;;;;;;;4.50;1.30;;;;;;;;;;5056168;28;20388;-86
2022/09/29 05:44:23;;;;;;;2.35;1.00;;;;;;;;;;5074118;28;20028;-88
2022/09/29 05:46:49;;;;;;;3.50;1.30;;;;;;;;;;5056789;28;20021;-84
2022/09/29 05:49:18;;;;;;;2.50;1.33;;;;;;;;;;5057115;28;20027;-88
2022/09/29 05:51:44;;;;;;;2.13;0.70;;;;;;;;;;5057593;28;20047;-75
2022/09/29 05:54:10;;;;;;;2.35;0.77;;;;;;;;;;5057631;28;20086;-88
2022/09/29 05:56:36;;;;;;;2.30;0.90;;;;;;;;;;5064594;28;20075;-88
2022/09/29 05:59:02;;;;;;;2.75;1.10;;;;;;;;;;5056054;28;20123;-76
2022/09/29 06:01:28;;;;;;;3.78;1.00;;;;;;;;;;5055927;28;20016;-87
2022/09/29 06:03:55;;;;;;;4.30;1.05;;;;;;;;;;5056144;28;20021;-87
2022/09/29 06:06:22;;;;;;;3.22;0.93;;;;;;;;;;5055930;28;20032;-82
2022/09/29 06:08:49;;;;;;;2.78;0.90;;;;;;;;;;5073443;28;20473;-79
2022/09/29 06:11:16;;;;;;;3.65;1.08;;;;;;;;;;5055750;28;20040;-76
2022/09/29 06:13:44;;;;;;;3.05;1.35;;;;;;;;;;5057312;28;20027;-77
2022/09/29 06:16:10;;;;;;;3.95;1.20;;;;;;;;;;5057098;28;20033;-76
2022/09/29 06:18:37;;;;;;;3.33;1.00;;;;;;;;;;5055796;28;20017;-78
2022/09/29 06:21:04;;;;;;;2.70;0.93;;;;;;;;;;5073289;28;20062;-85
2022/09/29 06:23:30;;;;;;;4.53;1.30;;;;;;;;;;5093758;28;20031;-79
2022/09/29 06:26:03;;;;;;;7.90;1.60;;;;;;;;;;5092769;28;20081;-83
2022/09/29 06:28:30;;;;;;;5.72;1.92;;;;;;;;;;5079758;28;20025;-77
2022/09/29 06:31:04;;;;;;;3.92;2.10;;;;;;;;;;5073859;28;20033;-77
2022/09/29 06:33:30;;;;;;;4.88;1.63;;;;;;;;;;5077530;28;20024;-77
2022/09/29 06:38:42;;;;;;;4.10;1.42;;;;;;;;;;5094717;28;20039;-89
2022/09/29 06:41:08;;;;;;;2.55;1.10;;;;;;;;;;5094706;28;20020;-88
2022/09/29 06:43:35;;;;;;;3.10;1.33;;;;;;;;;;5093265;28;20078;-87
2022/09/29 06:46:01;;;;;;;2.25;1.20;;;;;;;;;;5092782;28;20016;-86
2022/09/29 06:48:28;;;;;;;3.78;1.38;;;;;;;;;;5092674;28;20024;-86
2022/09/29 06:50:55;;;;;;;2.78;1.48;;;;;;;;;;5092105;28;20028;-83
2022/09/29 06:53:21;;;;;;;6.57;1.67;;;;;;;;;;5092081;28;20031;-84
2022/09/29 06:55:55;;;;;;;3.20;1.60;;;;;;;;;;5092303;28;20031;-85
2022/09/29 06:58:22;;;;;;;5.32;1.65;;;;;;;;;;5091830;28;20036;-83
2022/09/29 07:00:48;;;;;;;4.55;2.22;;;;;;;;;;5091836;28;20423;-84
2022/09/29 07:03:14;;;;;;;6.20;2.50;;;;;;;;;;5091770;28;20020;-83
2022/09/29 07:05:40;;;;;;;3.15;1.52;;;;;;;;;;5092573;28;20115;-85
2022/09/29 07:08:07;;;;;;;4.90;1.52;;;;;;;;;;5092039;28;20119;-82
2022/09/29 07:10:34;;;;;;;2.88;1.45;;;;;;;;;;5093496;28;20027;-80
2022/09/29 07:13:00;;;;;;;4.25;1.55;;;;;;;;;;5092317;28;20024;-80
2022/09/29 07:15:32;;;;;;;3.13;1.17;;;;;;;;;;5092752;28;20067;-88
2022/09/29 07:17:59;;;;;;;4.63;1.37;;;;;;;;;;5095135;28;20020;-79
2022/09/29 07:20:26;;;;;;;3.35;1.40;;;;;;;;;;5095571;28;20525;-86
2022/09/29 07:22:52;;;;;;;4.40;1.25;;;;;;;;;;5095891;28;20109;-86
2022/09/29 07:25:18;;;;;;;2.70;1.50;;;;;;;;;;5095613;28;20066;-82
2022/09/29 07:27:45;;;;;;;3.33;1.63;;;;;;;;;;5088851;28;20073;-75
2022/09/29 07:30:11;;;;;;;3.03;1.38;;;;;;;;;;5086311;28;20032;-76
2022/09/29 07:32:37;;;;;;;2.55;0.95;;;;;;;;;;5084852;28;20016;-76
2022/09/29 07:35:04;;;;;;;2.65;1.10;;;;;;;;;;5085257;28;20028;-75
2022/09/29 07:37:31;;;;;;;2.97;1.25;;;;;;;;;;5083384;28;20111;-77
2022/09/29 07:39:57;;;;;;;2.33;1.10;;;;;;;;;;5084920;28;20499;-83
2022/09/29 07:42:23;;;;;;;5.07;1.35;;;;;;;;;;5084931;28;20017;-80
2022/09/29 07:44:49;;;;;;;3.25;1.38;;;;;;;;;;5083098;28;20056;-83
2022/09/29 07:47:15;;;;;;;3.97;1.20;;;;;;;;;;5093773;28;20550;-78
2022/09/29 07:49:41;;;;;;;2.95;1.00;;;;;;;;;;5095913;28;20027;-84
2022/09/29 07:52:07;;;;;;;2.90;1.00;;;;;;;;;;5095972;28;20085;-84
2022/09/29 07:54:34;;;;;;;3.15;1.10;;;;;;;;;;5094628;28;20492;-76
2022/09/29 07:57:02;;;;;;;2.13;1.15;;;;;;;;;;5091674;28;20035;-77
2022/09/29 07:59:29;;;;;;;3.60;1.15;;;;;;;;;;5094881;28;20028;-79
2022/09/29 08:01:55;;;;;;;2.95;1.08;;;;;;;;;;5094728;28;20396;-81
2022/09/29 08:04:21;;;;;;;6.65;1.20;;;;;;;;;;5083315;28;20032;-79
2022/09/29 08:06:47;;;;;;;2.00;0.80;;;;;;;;;;5078112;28;20024;-80
2022/09/29 08:09:13;;;;;;;5.90;1.50;;;;;;;;;;5079903;28;20024;-82
2022/09/29 08:11:41;;;;;;;4.22;1.30;;;;;;;;;;5091665;28;20123;-78
2022/09/29 08:14:07;;;;;;;1.63;0.90;;;;;;;;;;5139322;22;20049;-79
2022/09/29 08:16:33;;;;;;;2.20;0.90;;;;;;;;;;5035178;28;20037;-81
2022/09/29 08:19:00;;;;;;;2.67;0.90;;;;;;;;;;5035239;28;20113;-81
2022/09/29 08:21:26;;;;;;;3.05;1.08;;;;;;;;;;5033653;28;20394;-78
2022/09/29 08:23:52;;;;;;;2.03;0.90;;;;;;;;;;5034070;28;20022;-80
2022/09/29 08:26:21;;;;;;;1.45;0.80;;;;;;;;;;5034405;28;20030;-84
2022/09/29 08:28:47;;;;;;;2.17;0.93;;;;;;;;;;5034469;28;20029;-83
2022/09/29 08:31:15;;;;;;;2.00;0.68;;;;;;;;;;5034375;28;20033;-83
2022/09/29 08:33:41;;;;;;;1.98;0.82;;;;;;;;;;5034543;28;20025;-84
2022/09/29 08:36:13;;;;;;;2.70;0.90;;;;;;;;;;5034315;28;20055;-87
2022/09/29 08:38:43;;;;;;;3.08;0.90;;;;;;;;;;5034233;28;20029;-82
2022/09/29 08:41:20;;;;;;;2.00;0.80;;;;;;;;;;5034446;28;20037;-85
2022/09/29 08:43:47;;;;;;;2.72;0.88;;;;;;;;;;5034423;28;20033;-84
2022/09/29 08:46:13;;;;;;;1.40;0.63;;;;;;;;;;5034497;28;20120;-76
2022/09/29 08:48:42;;;;;;;3.72;0.77;;;;;;;;;;5033903;28;20087;-77
2022/09/29 08:51:17;;;;;;;0.95;0.40;;;;;;;;;;5034176;28;20056;-85
2022/09/29 08:53:45;;;;;;;2.72;0.85;;;;;;;;;;5034197;28;20394;-85
2022/09/29 08:56:14;;;;;;;2.30;0.88;;;;;;;;;;5034162;28;20120;-76
2022/09/29 08:58:40;;;;;;;2.60;0.90;;;;;;;;;;5034304;28;20052;-86
2022/09/29 09:01:08;;;;;;;1.48;0.73;;;;;;;;;;5034515;28;20083;-84
2022/09/29 09:03:34;;;;;;;2.10;0.70;;;;;;;;;;5036814;28;20025;-84
2022/09/29 09:06:00;;;;;;;3.00;0.90;;;;;;;;;;5038624;28;20036;-83
2022/09/29 09:08:40;;;;;;;2.38;0.90;;;;;;;;;;5034933;28;20083;-87
2022/09/29 09:11:18;;;;;;;3.70;0.85;;;;;;;;;;5035287;28;20463;-89
2022/09/29 09:13:50;;;;;;;2.08;0.90;;;;;;;;;;5034691;28;20064;-86
2022/09/29 09:16:52;;;;;;;2.20;0.77;;;;;;;;;;5034365;28;20055;-78
2022/09/29 09:19:28;;;;;;;1.40;0.70;;;;;;;;;;4937819;29;20286;-78
2022/09/29 09:22:15;;;;;;;1.08;0.55;;;;;;;;;;5023746;28;20068;-82
2022/09/29 09:24:53;;;;;;;5.75;0.93;;;;;;;;;;5017149;28;20029;-89
2022/09/29 09:27:21;;;;;;;1.17;0.55;;;;;;;;;;5033201;28;20067;-78
2022/09/29 09:29:52;;;;;;;1.40;0.45;;;;;;;;;;5033649;28;20045;-81
2022/09/29 09:32:26;;;;;;;4.03;0.85;;;;;;;;;;5033531;28;20148;-85
2022/09/29 09:34:56;;;;;;;1.65;0.50;;;;;;;;;;5034402;28;20033;-88
2022/09/29 09:37:28;;;;;;;2.75;0.70;;;;;;;;;;5034217;28;20452;-84
2022/09/29 09:40:00;;;;;;;0.93;0.50;;;;;;;;;;5032537;28;20506;-84
2022/09/29 09:42:38;;;;;;;1.52;0.70;;;;;;;;;;5033086;28;20394;-83
2022/09/29 09:45:13;;;;;;;2.28;0.50;;;;;;;;;;5032688;28;20079;-83
2022/09/29 09:47:43;;;;;;;1.83;0.43;;;;;;;;;;5034080;28;20025;-79
2022/09/29 09:50:14;;;;;;;1.40;0.50;;;;;;;;;;5033157;28;20029;-84
2022/09/29 09:52:43;;;;;;;0.93;0.40;;;;;;;;;;5032932;28;20475;-83
2022/09/29 09:55:20;;;;;;;5.72;0.70;;;;;;;;;;5032712;28;20037;-77
2022/09/29 09:58:04;;;;;;;1.00;0.50;;;;;;;;;;5033240;28;20022;-84
2022/09/29 10:00:37;;;;;;;1.98;0.40;;;;;;;;;;5032650;28;20021;-84
2022/09/29 10:03:04;;;;;;;1.63;0.65;;;;;;;;;;5032817;28;20026;-76
2022/09/29 10:05:35;;;;;;;2.42;0.88;;;;;;;;;;5032986;28;20029;-83
2022/09/29 10:08:02;;;;;;;1.35;0.65;;;;;;;;;;5034198;28;20021;-78
2022/09/29 10:10:30;;;;;;;1.52;0.73;;;;;;;;;;5032763;28;20021;-85
2022/09/29 10:12:58;;;;;;;1.83;0.68;;;;;;;;;;5033815;28;20029;-83
2022/09/29 10:15:29;;;;;;;2.55;0.70;;;;;;;;;;5033658;28;20057;-81
2022/09/29 10:18:01;;;;;;;1.40;0.52;;;;;;;;;;5033624;28;20095;-83
2022/09/29 10:20:35;;;;;;;2.17;0.70;;;;;;;;;;5032609;28;20029;-78
2022/09/29 10:23:20;;;;;;;2.17;0.80;;;;;;;;;;5032855;28;20029;-85
2022/09/29 10:25:54;;;;;;;2.58;0.80;;;;;;;;;;5032548;28;20025;-83
2022/09/29 10:28:22;;;;;;;2.05;0.60;;;;;;;;;;5032960;28;20071;-85
2022/09/29 10:30:48;;;;;;;4.38;0.80;;;;;;;;;;5034044;28;20030;-86
2022/09/29 10:33:17;;;;;;;1.13;0.50;;;;;;;;;;5032785;28;20505;-79
2022/09/29 10:35:44;;;;;;;1.17;0.60;;;;;;;;;;5032801;28;20115;-82
2022/09/29 10:38:24;;;;;;;1.83;0.60;;;;;;;;;;5035508;28;20029;-81
2022/09/29 10:41:03;;;;;;;5.70;0.60;;;;;;;;;;5032782;28;20059;-86
2022/09/29 10:43:38;;;;;;;2.03;0.88;;;;;;;;;;5033726;28;20075;-82
2022/09/29 10:46:05;;;;;;;1.50;0.52;;;;;;;;;;5032183;28;20033;-82
2022/09/29 10:48:31;;;;;;;1.42;0.60;;;;;;;;;;5032133;28;20022;-84
2022/09/29 10:51:04;;;;;;;1.77;0.52;;;;;;;;;;5032012;28;20111;-89
2022/09/29 10:53:35;;;;;;;1.33;0.52;;;;;;;;;;5036746;28;20485;-88
2022/09/29 10:56:05;;;;;;;1.90;0.80;;;;;;;;;;5037062;28;20037;-85
2022/09/29 10:58:33;;;;;;;1.92;0.75;;;;;;;;;;5036227;28;20045;-78
2022/09/29 11:01:07;;;;;;;1.17;0.38;;;;;;;;;;5035595;28;20115;-84
2022/09/29 11:03:35;;;;;;;1.55;0.57;;;;;;;;;;5036306;28;20040;-79
2022/09/29 11:06:03;;;;;;;5.07;0.57;;;;;;;;;;5035443;28;20025;-84
2022/09/29 11:08:30;;;;;;;1.15;0.30;;;;;;;;;;5035472;28;20030;-82
2022/09/29 11:11:15;;;;;;;0.90;0.40;;;;;;;;;;5036941;28;20033;-83
2022/09/29 11:13:45;;;;;;;1.88;0.65;;;;;;;;;;5035068;28;20446;-77
2022/09/29 11:16:18;;;;;;;0.93;0.40;;;;;;;;;;5035899;28;20120;-85
2022/09/29 11:18:46;;;;;;;2.58;0.63;;;;;;;;;;5035783;28;20049;-77
2022/09/29 11:21:21;;;;;;;1.65;0.60;;;;;;;;;;5037122;28;20386;-77
2022/09/29 11:24:02;;;;;;;1.40;0.63;;;;;;;;;;5035751;28;20482;-79
2022/09/29 11:26:49;;;;;;;2.58;0.60;;;;;;;;;;5035519;28;20382;-86
2022/09/29 11:29:15;;;;;;;2.33;0.75;;;;;;;;;;5035027;28;20393;-79
2022/09/29 11:31:47;;;;;;;4.45;0.75;;;;;;;;;;5035954;28;20088;-76
2022/09/29 11:34:19;;;;;;;1.63;0.80;;;;;;;;;;5034817;28;20030;-87
2022/09/29 11:36:51;;;;;;;2.42;0.60;;;;;;;;;;5035668;28;20025;-89
2022/09/29 11:39:23;;;;;;;2.63;0.82;;;;;;;;;;5032372;28;20033;-83
2022/09/29 11:41:59;;;;;;;1.67;0.70;;;;;;;;;;5025986;28;20128;-79
2022/09/29 11:44:37;;;;;;;1.20;0.60;;;;;;;;;;5025537;28;20263;-79
2022/09/29 11:47:30;;;;;;;1.25;0.55;;;;;;;;;;5016237;28;20104;-79
2022/09/29 11:50:14;;;;;;;3.42;0.80;;;;;;;;;;5016135;28;20037;-81
2022/09/29 11:53:05;;;;;;;2.08;0.63;;;;;;;;;;5015031;28;20035;-79
2022/09/29 11:55:51;;;;;;;1.88;0.60;;;;;;;;;;5014482;28;20204;-83
2022/09/29 11:58:21;;;;;;;2.75;0.50;;;;;;;;;;5033413;28;20086;-79
2022/09/29 12:01:05;;;;;;;1.60;0.55;;;;;;;;;;5034550;28;20060;-81
2022/09/29 12:03:40;;;;;;;2.95;0.70;;;;;;;;;;5034007;28;20371;-81
2022/09/29 12:06:15;;;;;;;1.45;0.60;;;;;;;;;;5035474;28;20052;-82
2022/09/29 12:09:02;;;;;;;2.50;0.75;;;;;;;;;;5035357;28;20375;-79
2022/09/29 12:11:49;;;;;;;2.47;0.60;;;;;;;;;;5035614;28;20056;-82
2022/09/29 12:14:15;;;;;;;1.20;0.60;;;;;;;;;;5023603;28;20085;-81
2022/09/29 12:16:45;;;;;;;1.63;0.60;;;;;;;;;;5015442;28;20034;-80
2022/09/29 12:19:15;;;;;;;3.10;0.70;;;;;;;;;;5014206;28;20026;-79
2022/09/29 12:21:43;;;;;;;1.30;0.50;;;;;;;;;;5015499;28;20026;-79
2022/09/29 12:24:15;;;;;;;1.95;0.63;;;;;;;;;;5015338;28;20191;-79
2022/09/29 12:26:42;;;;;;;2.28;0.52;;;;;;;;;;5013902;28;20022;-81
2022/09/29 12:29:17;;;;;;;1.23;0.50;;;;;;;;;;5015331;28;20150;-81
2022/09/29 12:31:46;;;;;;;0.77;0.30;;;;;;;;;;5026842;28;20036;-80
2022/09/29 12:34:51;;;;;;;0.95;0.40;;;;;;;;;;5033723;28;20379;-80
2022/09/29 12:37:23;;;;;;;2.83;0.55;;;;;;;;;;4974181;28;20027;-78
2022/09/29 12:40:00;;;;;;;1.70;0.70;;;;;;;;;;4958068;28;20035;-78
2022/09/29 12:42:40;;;;;;;1.20;0.40;;;;;;;;;;5001453;28;20033;-83
2022/09/29 12:45:26;;;;;;;1.55;0.60;;;;;;;;;;5035150;28;20028;-82
2022/09/29 12:47:52;;;;;;;1.60;0.60;;;;;;;;;;4988421;28;20121;-80
2022/09/29 12:50:22;;;;;;;1.75;0.52;;;;;;;;;;5014346;28;20437;-85
2022/09/29 12:52:54;;;;;;;2.67;0.50;;;;;;;;;;5013554;28;20030;-78
2022/09/29 12:55:43;;;;;;;0.98;0.40;;;;;;;;;;5014947;28;20034;-82
2022/09/29 12:58:13;;;;;;;2.00;0.60;;;;;;;;;;5006008;28;20444;-88
2022/09/29 13:00:42;;;;;;;1.10;0.40;;;;;;;;;;5014791;28;20022;-88
2022/09/29 13:03:24;;;;;;;1.25;0.40;;;;;;;;;;5014276;28;20030;-79
2022/09/29 13:06:06;;;;;;;1.23;0.50;;;;;;;;;;5014642;28;20026;-88
2022/09/29 13:08:41;;;;;;;2.00;0.50;;;;;;;;;;5015389;28;20022;-88
2022/09/29 13:11:17;;;;;;;1.35;0.65;;;;;;;;;;5014901;28;20034;-91
2022/09/29 13:13:44;;;;;;;4.75;0.50;;;;;;;;;;5016654;28;20049;-81
2022/09/29 13:16:20;;;;;;;2.15;0.50;;;;;;;;;;4996233;28;20042;-80
2022/09/29 13:19:09;;;;;;;0.93;0.40;;;;;;;;;;4997550;28;20533;-80
2022/09/29 13:21:43;;;;;;;5.93;0.80;;;;;;;;;;4970407;28;20045;-80
2022/09/29 13:24:18;;;;;;;0.82;0.40;;;;;;;;;;4997333;28;20030;-80
2022/09/29 13:27:03;;;;;;;2.55;0.77;;;;;;;;;;4997513;28;20025;-80
2022/09/29 13:29:30;;;;;;;1.23;0.40;;;;;;;;;;4996731;28;20025;-79
2022/09/29 13:31:57;;;;;;;1.20;0.60;;;;;;;;;;5014705;28;20475;-79
2022/09/29 13:34:29;;;;;;;3.13;0.77;;;;;;;;;;4996423;28;20032;-80
2022/09/29 13:37:04;;;;;;;2.00;0.73;;;;;;;;;;4996593;28;20077;-79
2022/09/29 13:39:30;;;;;;;0.95;0.45;;;;;;;;;;4996769;28;20026;-84
2022/09/29 13:42:05;;;;;;;1.10;0.47;;;;;;;;;;4996859;28;20037;-80
2022/09/29 13:44:31;;;;;;;2.40;0.70;;;;;;;;;;4996736;28;20025;-80
2022/09/29 13:47:17;;;;;;;2.35;0.85;;;;;;;;;;4998067;28;20033;-87
2022/09/29 13:49:43;;;;;;;2.25;0.70;;;;;;;;;;5003520;28;20533;-87
2022/09/29 13:52:12;;;;;;;1.45;0.50;;;;;;;;;;4997789;28;20070;-80
2022/09/29 13:54:40;;;;;;;1.73;0.75;;;;;;;;;;4997467;28;20068;-88
2022/09/29 13:57:13;;;;;;;3.38;0.82;;;;;;;;;;4996960;28;20054;-80
2022/09/29 14:00:02;;;;;;;5.70;0.75;;;;;;;;;;5014203;28;20436;-80
2022/09/29 14:02:34;;;;;;;1.40;0.60;;;;;;;;;;4989383;28;20463;-86
2022/09/29 14:05:02;;;;;;;2.30;0.90;;;;;;;;;;4996536;28;20050;-83
2022/09/29 14:07:39;;;;;;;1.15;0.65;;;;;;;;;;4996698;28;20033;-88
2022/09/29 14:10:24;;;;;;;1.27;0.60;;;;;;;;;;4995883;28;20471;-79
2022/09/29 14:12:57;;;;;;;2.10;1.00;;;;;;;;;;4997066;28;20116;-82
2022/09/29 14:15:24;;;;;;;3.75;0.82;;;;;;;;;;5009209;28;20068;-79
2022/09/29 14:17:57;;;;;;;3.85;1.75;;;;;;;;;;5012157;28;20517;-79
2022/09/29 14:20:30;;;;;;;3.38;0.80;;;;;;;;;;5012274;28;20030;-78
2022/09/29 14:23:04;;;;;;;4.50;1.05;;;;;;;;;;5012957;28;20494;-85
2022/09/29 14:25:35;;;;;;;2.35;1.10;;;;;;;;;;5013975;28;20022;-86
2022/09/29 14:28:17;;;;;;;4.68;1.45;;;;;;;;;;5019263;28;20059;-78
2022/09/29 14:30:47;;;;;;;2.08;0.70;;;;;;;;;;5020294;28;20053;-78
2022/09/29 14:33:16;;;;;;;4.18;0.80;;;;;;;;;;5020150;28;20026;-89
2022/09/29 14:35:44;;;;;;;1.63;0.80;;;;;;;;;;5020337;28;20034;-89
2022/09/29 14:38:20;;;;;;;4.35;0.70;;;;;;;;;;5022475;28;20018;-77
2022/09/29 14:40:56;;;;;;;1.95;0.60;;;;;;;;;;5038740;28;20096;-79
2022/09/29 14:43:41;;;;;;;3.75;0.60;;;;;;;;;;5024262;28;20028;-79
2022/09/29 14:52:02;;;;;;;2.85;0.68;;;;;;;;;;5023343;28;20048;-80
2022/09/29 14:54:42;;;;;;;1.90;0.50;;;;;;;;;;5038183;28;20033;-79
2022/09/29 14:57:31;;;;;;;2.60;0.80;;;;;;;;;;5038234;28;20022;-80
2022/09/29 15:00:16;;;;;;;1.77;0.68;;;;;;;;;;5038135;28;20382;-80
2022/09/29 15:02:45;;;;;;;1.38;0.55;;;;;;;;;;5038240;28;20064;-81
2022/09/29 15:05:23;;;;;;;1.20;0.55;;;;;;;;;;5038129;28;20033;-79
2022/09/29 15:07:50;;;;;;;1.40;0.70;;;;;;;;;;5038047;28;20490;-79
2022/09/29 15:10:21;;;;;;;1.42;0.70;;;;;;;;;;5037985;28;20025;-79